createdAt,value
2019-01-04T00:01:23.418Z,103310.46
2019-01-04T00:04:29.108Z,103308.95
2019-01-04T00:07:32.932Z,103315.19
2019-01-04T00:10:36.741Z,103313.64
2019-01-04T00:13:40.699Z,103313.75
2019-01-04T00:16:44.588Z,103318.44
2019-01-04T00:19:48.505Z,103311.55
2019-01-04T00:22:52.402Z,103309.47
2019-01-04T00:25:56.289Z,103302.00
2019-01-04T00:29:00.186Z,103296.33
2019-01-04T00:32:04.141Z,103304.25
2019-01-04T00:35:08.337Z,103307.80
2019-01-04T00:38:12.309Z,103306.37
2019-01-04T00:41:16.201Z,103300.63
2019-01-04T00:44:20.162Z,103295.13
2019-01-04T00:47:24.167Z,103299.44
2019-01-04T00:50:28.044Z,103304.80
2019-01-04T00:53:31.961Z,103304.69
2019-01-04T00:57:08.356Z,103310.44
2019-01-04T01:00:56.332Z,103309.82
2019-01-04T01:04:46.479Z,103305.41
2019-01-04T01:08:30.690Z,103299.53
2019-01-04T01:12:11.750Z,103296.72
2019-01-04T01:15:46.145Z,103295.05
2019-01-04T01:19:26.004Z,103291.72
2019-01-04T01:23:07.164Z,103291.39
2019-01-04T01:26:46.800Z,103289.02
2019-01-04T01:30:21.164Z,103278.13
2019-01-04T01:33:46.171Z,103261.88
2019-01-04T01:37:45.803Z,103266.95
2019-01-04T01:41:33.269Z,103272.89
2019-01-04T01:45:21.593Z,103270.33
2019-01-04T01:48:54.400Z,103263.38
2019-01-04T01:52:04.205Z,103261.72
2019-01-04T01:55:08.046Z,103262.05
2019-01-04T01:58:11.861Z,103256.36
2019-01-04T02:01:15.774Z,103255.14
2019-01-04T02:04:19.591Z,103250.27
2019-01-04T02:07:23.397Z,103247.16
2019-01-04T02:10:27.202Z,103235.69
2019-01-04T02:13:31.182Z,103225.23
2019-01-04T02:16:34.980Z,103215.59
2019-01-04T02:19:38.813Z,103208.43
2019-01-04T02:22:42.635Z,103207.26
2019-01-04T02:25:46.444Z,103201.58
2019-01-04T02:28:50.240Z,103203.73
2019-01-04T02:31:54.080Z,103200.63
2019-01-04T02:34:57.900Z,103207.26
2019-01-04T02:38:01.722Z,103210.80
2019-01-04T02:41:05.539Z,103204.06
2019-01-04T02:44:09.379Z,103206.86
2019-01-04T02:47:13.170Z,103194.80
2019-01-04T02:50:16.968Z,103192.73
2019-01-04T02:53:20.791Z,103179.15
2019-01-04T02:56:24.607Z,103176.86
2019-01-04T02:59:28.418Z,103169.41
2019-01-04T03:02:32.229Z,103169.17
2019-01-04T03:05:36.048Z,103164.19
2019-01-04T03:08:39.856Z,103151.53
2019-01-04T03:11:43.761Z,103135.14
2019-01-04T03:14:47.582Z,103137.98
2019-01-04T03:17:51.418Z,103123.98
2019-01-04T03:20:55.215Z,103121.63
2019-01-04T03:23:59.073Z,103123.34
2019-01-04T03:27:02.887Z,103103.23
2019-01-04T03:30:06.805Z,103111.03
2019-01-04T03:33:10.683Z,103110.03
2019-01-04T03:36:14.603Z,103105.73
2019-01-04T03:39:18.493Z,103108.94
2019-01-04T03:42:22.498Z,103091.90
2019-01-04T03:45:26.323Z,103083.72
2019-01-04T03:48:30.133Z,103070.86
2019-01-04T03:51:33.949Z,103069.55
2019-01-04T03:54:37.755Z,103070.86
2019-01-04T03:57:41.568Z,103066.56
2019-01-04T04:00:45.405Z,103059.77
2019-01-04T04:03:49.220Z,103055.97
2019-01-04T04:06:53.015Z,103058.76
2019-01-04T04:09:56.845Z,103045.77
2019-01-04T04:13:00.651Z,103049.92
2019-01-04T04:16:04.474Z,103031.85
2019-01-04T04:19:08.292Z,103022.09
2019-01-04T04:22:12.126Z,103014.05
2019-01-04T04:25:15.935Z,103000.43
2019-01-04T04:28:19.746Z,103001.98
2019-01-04T04:31:23.548Z,102996.19
2019-01-04T04:34:27.380Z,103010.02
2019-01-04T04:37:31.159Z,103018.77
2019-01-04T04:40:34.964Z,103025.95
2019-01-04T04:43:38.785Z,103020.48
2019-01-04T04:46:42.569Z,103015.59
2019-01-04T04:49:46.400Z,103013.97
2019-01-04T04:52:50.188Z,103014.67
2019-01-04T04:55:54.024Z,103011.02
2019-01-04T04:58:57.825Z,103001.12
2019-01-04T05:02:01.618Z,102999.64
2019-01-04T05:05:05.585Z,103003.44
2019-01-04T05:08:09.425Z,103000.02
2019-01-04T05:11:13.205Z,102981.92
2019-01-04T05:14:17.039Z,102979.99
2019-01-04T05:17:20.846Z,102984.96
2019-01-04T05:20:24.666Z,102981.39
2019-01-04T05:23:28.465Z,102974.73
2019-01-04T05:26:32.274Z,102972.73
2019-01-04T05:29:36.074Z,102976.13
2019-01-04T05:32:39.877Z,102958.41
2019-01-04T05:35:43.686Z,102951.97
2019-01-04T05:38:47.490Z,102942.37
2019-01-04T05:41:51.289Z,102942.59
2019-01-04T05:44:55.078Z,102948.30
2019-01-04T05:47:58.872Z,102948.23
2019-01-04T05:51:02.682Z,102947.08
2019-01-04T05:54:06.506Z,102947.53
2019-01-04T05:57:10.363Z,102935.81
2019-01-04T06:00:14.223Z,102928.33
2019-01-04T06:03:18.079Z,102933.82
2019-01-04T06:06:21.871Z,102932.50
2019-01-04T06:09:25.699Z,102934.45
2019-01-04T06:12:29.503Z,102927.23
2019-01-04T06:15:33.294Z,102915.25
2019-01-04T06:18:37.127Z,102911.25
2019-01-04T06:21:40.918Z,102919.88
2019-01-04T06:24:44.738Z,102918.59
2019-01-04T06:27:48.558Z,102919.11
2019-01-04T06:30:52.405Z,102918.20
2019-01-04T06:33:56.210Z,102909.27
2019-01-04T06:37:00.032Z,102911.71
2019-01-04T06:40:04.503Z,102903.10
2019-01-04T06:43:08.301Z,102889.22
2019-01-04T06:46:12.114Z,102881.71
2019-01-04T06:49:15.932Z,102879.49
2019-01-04T06:52:21.410Z,102874.56
2019-01-04T06:55:52.431Z,102873.97
2019-01-04T06:58:56.217Z,102863.36
2019-01-04T07:02:00.028Z,102864.31
2019-01-04T07:05:04.106Z,102879.75
2019-01-04T07:08:08.114Z,102867.77
2019-01-04T07:11:11.917Z,102885.73
2019-01-04T07:14:15.742Z,102866.38
2019-01-04T07:17:19.531Z,102874.73
2019-01-04T07:20:23.425Z,102870.92
2019-01-04T07:23:27.215Z,102875.80
2019-01-04T07:26:31.034Z,102877.20
2019-01-04T07:29:34.834Z,102883.05
2019-01-04T07:32:38.630Z,102883.98
2019-01-04T07:35:42.439Z,102873.45
2019-01-04T07:38:46.246Z,102870.28
2019-01-04T07:41:50.057Z,102866.73
2019-01-04T07:44:53.842Z,102872.20
2019-01-04T07:47:57.627Z,102871.35
2019-01-04T07:51:01.508Z,102855.41
2019-01-04T07:54:05.315Z,102858.89
2019-01-04T07:57:09.137Z,102866.48
2019-01-04T08:00:14.569Z,102866.02
2019-01-04T08:03:23.436Z,102867.64
2019-01-04T08:06:27.237Z,102864.03
2019-01-04T08:09:31.055Z,102869.57
2019-01-04T08:12:34.842Z,102874.30
2019-01-04T08:15:38.672Z,102892.99
2019-01-04T08:18:42.461Z,102883.33
2019-01-04T08:21:46.262Z,102876.47
2019-01-04T08:24:50.080Z,102867.64
2019-01-04T08:27:53.899Z,102866.06
2019-01-04T08:30:57.723Z,102876.06
2019-01-04T08:34:01.513Z,102876.59
2019-01-04T08:37:05.330Z,102862.27
2019-01-04T08:40:11.120Z,102867.06
2019-01-04T08:43:14.990Z,102858.70
2019-01-04T08:46:18.799Z,102854.84
2019-01-04T08:49:22.628Z,102838.27
2019-01-04T08:52:26.462Z,102834.94
2019-01-04T08:55:31.371Z,102828.15
2019-01-04T08:58:35.184Z,102826.23
2019-01-04T09:01:39.144Z,102817.67
2019-01-04T09:04:43.050Z,102825.03
2019-01-04T09:07:46.970Z,102820.92
2019-01-04T09:10:50.788Z,102812.09
2019-01-04T09:13:55.246Z,102802.34
2019-01-04T09:17:00.124Z,102792.13
2019-01-04T09:20:04.745Z,102784.05
2019-01-04T09:23:08.552Z,102764.77
2019-01-04T09:26:12.429Z,102764.77
2019-01-04T09:29:16.337Z,102763.53
2019-01-04T09:32:20.157Z,102759.11
2019-01-04T09:35:23.986Z,102757.12
2019-01-04T09:38:27.811Z,102761.21
2019-01-04T09:41:37.433Z,102757.44
2019-01-04T09:44:41.987Z,102754.48
2019-01-04T09:47:45.902Z,102731.94
2019-01-04T09:50:49.702Z,102735.89
2019-01-04T09:53:53.531Z,102728.58
2019-01-04T09:56:57.396Z,102719.03
2019-01-04T10:00:01.242Z,102718.23
2019-01-04T10:03:05.075Z,102703.34
2019-01-04T10:06:08.987Z,102707.04
2019-01-04T10:09:12.830Z,102707.04
2019-01-04T10:12:16.658Z,102698.23
2019-01-04T10:15:20.483Z,102689.28
2019-01-04T10:18:24.315Z,102687.09
2019-01-04T10:21:28.219Z,102693.28
2019-01-04T10:24:32.087Z,102707.05
2019-01-04T10:27:35.890Z,102696.05
2019-01-04T10:30:39.730Z,102695.70
2019-01-04T10:33:43.635Z,102700.20
2019-01-04T10:36:47.456Z,102677.80
2019-01-04T10:39:51.353Z,102685.94
2019-01-04T10:42:55.285Z,102668.03
2019-01-04T10:45:59.118Z,102659.77
2019-01-04T10:49:02.959Z,102661.14
2019-01-04T10:52:06.795Z,102658.60
2019-01-04T10:55:10.741Z,102646.33
2019-01-04T10:58:14.585Z,102649.47
2019-01-04T11:01:18.426Z,102657.48
2019-01-04T11:04:22.250Z,102648.61
2019-01-04T11:07:26.066Z,102646.44
2019-01-04T11:10:30.013Z,102648.49
2019-01-04T11:13:33.824Z,102651.86
2019-01-04T11:16:37.735Z,102651.63
2019-01-04T11:19:41.615Z,102647.32
2019-01-04T11:22:58.572Z,102650.87
2019-01-04T11:26:25.569Z,102638.49
2019-01-04T11:30:09.220Z,102647.45
2019-01-04T11:33:40.656Z,102647.59
2019-01-04T11:37:05.867Z,102634.72
2019-01-04T11:40:32.910Z,102644.13
2019-01-04T11:43:59.308Z,102634.98
2019-01-04T11:47:50.058Z,102623.19
2019-01-04T11:51:37.209Z,102639.25
2019-01-04T11:54:41.057Z,102638.08
2019-01-04T11:57:44.909Z,102637.18
2019-01-04T12:00:48.764Z,102637.92
2019-01-04T12:03:58.077Z,102617.91
2019-01-04T12:07:02.059Z,102625.63
2019-01-04T12:10:06.501Z,102616.70
2019-01-04T12:13:10.409Z,102604.73
2019-01-04T12:16:14.352Z,102593.72
2019-01-04T12:19:18.292Z,102592.89
2019-01-04T12:22:22.123Z,102581.05
2019-01-04T12:25:26.033Z,102570.67
2019-01-04T12:28:29.900Z,102572.70
2019-01-04T12:31:33.836Z,102583.88
2019-01-04T12:34:37.800Z,102582.14
2019-01-04T12:37:41.644Z,102575.53
2019-01-04T12:40:45.517Z,102582.25
2019-01-04T12:43:49.351Z,102574.45
2019-01-04T12:46:53.227Z,102573.61
2019-01-04T12:49:57.057Z,102578.09
2019-01-04T12:53:00.970Z,102575.38
2019-01-04T12:56:04.876Z,102573.72
2019-01-04T12:59:08.809Z,102568.95
2019-01-04T13:02:12.695Z,102569.03
2019-01-04T13:05:16.746Z,102576.02
2019-01-04T13:08:20.686Z,102578.24
2019-01-04T13:11:24.733Z,102590.13
2019-01-04T13:14:28.777Z,102579.53
2019-01-04T13:17:32.591Z,102582.44
2019-01-04T13:20:36.680Z,102577.61
2019-01-04T13:23:40.726Z,102574.62
2019-01-04T13:26:44.632Z,102567.45
2019-01-04T13:29:48.478Z,102570.73
2019-01-04T13:32:52.328Z,102574.17
2019-01-04T13:35:56.325Z,102569.41
2019-01-04T13:39:00.191Z,102557.07
2019-01-04T13:42:04.146Z,102565.83
2019-01-04T13:45:08.518Z,102569.86
2019-01-04T13:48:12.362Z,102573.75
2019-01-04T13:51:16.230Z,102582.09
2019-01-04T13:54:20.083Z,102566.70
2019-01-04T13:57:24.273Z,102574.87
2019-01-04T14:00:28.139Z,102573.52
2019-01-04T14:03:31.969Z,102574.94
2019-01-04T14:06:35.903Z,102568.30
2019-01-04T14:09:39.810Z,102555.21
2019-01-04T14:12:43.668Z,102556.98
2019-01-04T14:15:47.595Z,102554.73
2019-01-04T14:18:51.447Z,102557.78
2019-01-04T14:21:55.280Z,102544.22
2019-01-04T14:24:59.210Z,102547.16
2019-01-04T14:28:03.043Z,102539.80
2019-01-04T14:31:06.962Z,102546.80
2019-01-04T14:34:10.803Z,102544.57
2019-01-04T14:37:14.308Z,102540.70
2019-01-04T14:40:18.150Z,102533.67
2019-01-04T14:43:22.013Z,102527.91
2019-01-04T14:46:25.927Z,102516.52
2019-01-04T14:49:29.780Z,102519.56
2019-01-04T14:52:33.622Z,102509.44
2019-01-04T14:55:37.447Z,102508.95
2019-01-04T14:58:41.384Z,102511.13
2019-01-04T15:01:45.220Z,102510.19
2019-01-04T15:04:49.100Z,102503.03
2019-01-04T15:07:52.918Z,102514.54
2019-01-04T15:10:56.752Z,102518.56
2019-01-04T15:14:00.571Z,102527.78
2019-01-04T15:17:04.468Z,102526.43
2019-01-04T15:20:09.523Z,102535.23
2019-01-04T15:23:13.352Z,102538.87
2019-01-04T15:26:17.184Z,102544.61
2019-01-04T15:29:21.020Z,102520.73
2019-01-04T15:32:24.854Z,102527.75
2019-01-04T15:35:28.713Z,102526.43
2019-01-04T15:38:36.237Z,102525.53
2019-01-04T15:41:38.122Z,102526.47
2019-01-04T15:44:41.935Z,102522.89
2019-01-04T15:47:45.759Z,102517.67
2019-01-04T15:50:49.588Z,102511.09
2019-01-04T15:53:53.508Z,102506.31
2019-01-04T15:56:57.367Z,102501.03
2019-01-04T16:00:02.018Z,102493.12
2019-01-04T16:03:05.924Z,102489.55
2019-01-04T16:06:09.728Z,102489.49
2019-01-04T16:09:13.658Z,102489.47
2019-01-04T16:12:17.616Z,102500.00
2019-01-04T16:15:21.511Z,102482.86
2019-01-04T16:18:25.336Z,102484.66
2019-01-04T16:21:29.161Z,102477.99
2019-01-04T16:24:35.905Z,102475.30
2019-01-04T16:27:39.759Z,102476.16
2019-01-04T16:30:43.772Z,102462.95
2019-01-04T16:33:47.590Z,102469.95
2019-01-04T16:36:51.426Z,102466.50
2019-01-04T16:39:55.234Z,102470.40
2019-01-04T16:42:59.055Z,102480.91
2019-01-04T16:46:04.634Z,102477.78
2019-01-04T16:49:08.532Z,102485.89
2019-01-04T16:52:12.500Z,102491.08
2019-01-04T16:55:16.405Z,102484.48
2019-01-04T16:58:20.246Z,102493.79
2019-01-04T17:01:24.218Z,102486.73
2019-01-04T17:04:28.037Z,102483.97
2019-01-04T17:07:31.862Z,102481.74
2019-01-04T17:10:35.841Z,102475.53
2019-01-04T17:13:39.680Z,102469.38
2019-01-04T17:16:43.528Z,102455.38
2019-01-04T17:19:47.344Z,102446.25
2019-01-04T17:22:51.156Z,102464.78
2019-01-04T17:25:55.023Z,102452.36
2019-01-04T17:28:58.859Z,102456.85
2019-01-04T17:32:02.688Z,102450.33
2019-01-04T17:35:06.704Z,102463.04
2019-01-04T17:38:10.526Z,102455.16
2019-01-04T17:41:14.337Z,102459.95
2019-01-04T17:44:18.203Z,102462.25
2019-01-04T17:47:22.100Z,102463.58
2019-01-04T17:50:26.024Z,102464.11
2019-01-04T17:53:29.852Z,102462.31
2019-01-04T17:56:34.128Z,102468.47
2019-01-04T18:00:26.016Z,102466.27
2019-01-04T18:03:29.969Z,102466.27
2019-01-04T18:06:33.860Z,102458.77
2019-01-04T18:09:37.769Z,102454.38
2019-01-04T18:12:41.829Z,102455.39
2019-01-04T18:15:45.667Z,102445.69
2019-01-04T18:18:49.522Z,102440.42
2019-01-04T18:21:53.460Z,102438.64
2019-01-04T18:24:57.376Z,102437.82
2019-01-04T18:28:01.283Z,102427.20
2019-01-04T18:31:05.185Z,102420.19
2019-01-04T18:34:09.019Z,102412.73
2019-01-04T18:37:12.826Z,102408.78
2019-01-04T18:40:16.640Z,102414.05
2019-01-04T18:43:20.471Z,102410.04
2019-01-04T18:46:24.292Z,102404.77
2019-01-04T18:49:28.182Z,102407.88
2019-01-04T18:52:32.015Z,102401.30
2019-01-04T18:55:35.903Z,102390.68
2019-01-04T18:58:39.734Z,102402.13
2019-01-04T19:01:43.585Z,102386.71
2019-01-04T19:04:47.420Z,102391.12
2019-01-04T19:07:51.237Z,102385.84
2019-01-04T19:10:55.041Z,102385.78
2019-01-04T19:13:58.823Z,102378.76
2019-01-04T19:17:02.716Z,102384.91
2019-01-04T19:20:06.828Z,102376.13
2019-01-04T19:23:10.656Z,102365.13
2019-01-04T19:26:14.491Z,102374.83
2019-01-04T19:29:18.335Z,102361.13
2019-01-04T19:32:22.159Z,102372.61
2019-01-04T19:35:26.009Z,102370.88
2019-01-04T19:38:29.902Z,102362.02
2019-01-04T19:41:33.714Z,102358.55
2019-01-04T19:44:37.641Z,102358.08
2019-01-04T19:47:41.472Z,102362.91
2019-01-04T19:50:45.310Z,102345.69
2019-01-04T19:53:49.117Z,102347.97
2019-01-04T19:56:52.930Z,102361.14
2019-01-04T19:59:56.740Z,102356.30
2019-01-04T20:03:00.577Z,102341.34
2019-01-04T20:06:54.907Z,102345.28
2019-01-04T20:10:52.517Z,102339.63
2019-01-04T20:15:03.995Z,102341.84
2019-01-04T20:18:29.976Z,102322.84
2019-01-04T20:21:55.819Z,102312.25
2019-01-04T20:25:18.536Z,102318.43
2019-01-04T20:28:40.239Z,102315.41
2019-01-04T20:32:01.954Z,102330.41
2019-01-04T20:35:23.776Z,102308.81
2019-01-04T20:38:53.137Z,102303.00
2019-01-04T20:42:15.102Z,102297.34
2019-01-04T20:45:41.052Z,102284.14
2019-01-04T20:49:02.724Z,102305.70
2019-01-04T20:52:25.063Z,102292.52
2019-01-04T20:55:46.587Z,102284.23
2019-01-04T20:59:27.726Z,102282.00
2019-01-04T21:02:48.504Z,102279.73
2019-01-04T21:06:29.935Z,102271.41
2019-01-04T21:10:01.824Z,102261.27
2019-01-04T21:13:42.993Z,102261.22
2019-01-04T21:17:20.651Z,102269.17
2019-01-04T21:20:41.730Z,102262.16
2019-01-04T21:24:03.264Z,102255.93
2019-01-04T21:27:24.671Z,102266.94
2019-01-04T21:30:50.451Z,102268.27
2019-01-04T21:34:19.190Z,102279.70
2019-01-04T21:37:44.616Z,102270.97
2019-01-04T21:41:10.224Z,102265.30
2019-01-04T21:44:38.979Z,102252.06
2019-01-04T21:48:00.637Z,102260.83
2019-01-04T21:51:29.852Z,102247.67
2019-01-04T21:54:55.439Z,102242.38
2019-01-04T21:58:18.429Z,102237.08
2019-01-04T22:01:40.359Z,102231.77
2019-01-04T22:05:02.154Z,102218.58
2019-01-04T22:08:37.214Z,102222.11
2019-01-04T22:12:00.024Z,102216.83
2019-01-04T22:15:17.306Z,102223.45
2019-01-04T22:18:45.992Z,102225.67
2019-01-04T22:22:07.571Z,102222.16
2019-01-04T22:25:36.368Z,102198.78
2019-01-04T22:29:11.690Z,102195.67
2019-01-04T22:32:34.513Z,102194.78
2019-01-04T22:35:50.105Z,102189.96
2019-01-04T22:39:25.000Z,102190.42
2019-01-04T22:42:47.849Z,102178.98
2019-01-04T22:46:19.744Z,102161.33
2019-01-04T22:49:51.435Z,102170.19
2019-01-04T22:53:13.113Z,102167.96
2019-01-04T22:56:31.228Z,102145.05
2019-01-04T22:59:52.890Z,102137.98
2019-01-04T23:03:14.555Z,102142.40
2019-01-04T23:06:42.730Z,102142.83
2019-01-04T23:10:23.953Z,102136.20
2019-01-04T23:13:46.803Z,102161.80
2019-01-04T23:17:08.411Z,102134.46
2019-01-04T23:20:41.707Z,102127.84
2019-01-04T23:24:03.593Z,102119.47
2019-01-04T23:27:29.610Z,102114.61
2019-01-04T23:30:51.338Z,102121.66
2019-01-04T23:34:14.366Z,102119.02
2019-01-04T23:37:36.301Z,102123.40
2019-01-04T23:41:02.283Z,102104.89
2019-01-04T23:44:34.078Z,102112.83
2019-01-04T23:47:56.998Z,102114.58
2019-01-04T23:51:08.606Z,102116.36
2019-01-04T23:54:31.495Z,102111.94
2019-01-04T23:57:52.895Z,102111.52
